sensor_id;sensor_type;location;lat;lon;timestamp;P1;durP1;ratioP1;P2;durP2;ratioP2
69789;SDS011;57064;52.046;4.800;2022-10-23T00:00:28;34.70;;;16.70;;
69789;SDS011;57064;52.046;4.800;2022-10-23T00:02:54;30.67;;;16.63;;
69789;SDS011;57064;52.046;4.800;2022-10-23T00:05:20;31.38;;;15.88;;
69789;SDS011;57064;52.046;4.800;2022-10-23T00:07:51;34.60;;;15.57;;
69789;SDS011;57064;52.046;4.800;2022-10-23T00:10:19;34.75;;;16.20;;
69789;SDS011;57064;52.046;4.800;2022-10-23T00:12:45;30.85;;;15.45;;
69789;SDS011;57064;52.046;4.800;2022-10-23T00:15:12;36.10;;;15.25;;
69789;SDS011;57064;52.046;4.800;2022-10-23T00:17:39;31.30;;;15.60;;
69789;SDS011;57064;52.046;4.800;2022-10-23T00:20:06;27.27;;;15.80;;
69789;SDS011;57064;52.046;4.800;2022-10-23T00:22:33;28.65;;;15.32;;
69789;SDS011;57064;52.046;4.800;2022-10-23T00:24:59;34.88;;;15.40;;
69789;SDS011;57064;52.046;4.800;2022-10-23T00:27:25;30.52;;;16.45;;
69789;SDS011;57064;52.046;4.800;2022-10-23T00:29:51;30.90;;;17.50;;
69789;SDS011;57064;52.046;4.800;2022-10-23T00:32:17;32.83;;;16.55;;
69789;SDS011;57064;52.046;4.800;2022-10-23T00:34:43;31.58;;;16.30;;
69789;SDS011;57064;52.046;4.800;2022-10-23T00:37:09;32.33;;;17.30;;
69789;SDS011;57064;52.046;4.800;2022-10-23T00:39:36;36.72;;;17.63;;
69789;SDS011;57064;52.046;4.800;2022-10-23T00:42:02;33.67;;;15.52;;
69789;SDS011;57064;52.046;4.800;2022-10-23T00:46:54;28.98;;;16.67;;
69789;SDS011;57064;52.046;4.800;2022-10-23T00:49:21;33.15;;;17.55;;
69789;SDS011;57064;52.046;4.800;2022-10-23T00:51:52;29.48;;;15.57;;
69789;SDS011;57064;52.046;4.800;2022-10-23T00:54:22;32.15;;;15.27;;
69789;SDS011;57064;52.046;4.800;2022-10-23T00:56:50;29.45;;;16.38;;
69789;SDS011;57064;52.046;4.800;2022-10-23T00:59:18;33.33;;;16.00;;
69789;SDS011;57064;52.046;4.800;2022-10-23T01:01:44;33.17;;;16.15;;
69789;SDS011;57064;52.046;4.800;2022-10-23T01:04:10;28.90;;;15.88;;
69789;SDS011;57064;52.046;4.800;2022-10-23T01:06:37;36.90;;;17.20;;
69789;SDS011;57064;52.046;4.800;2022-10-23T01:09:13;37.97;;;17.65;;
69789;SDS011;57064;52.046;4.800;2022-10-23T01:14:22;33.05;;;18.00;;
69789;SDS011;57064;52.046;4.800;2022-10-23T01:16:55;39.42;;;18.85;;
69789;SDS011;57064;52.046;4.800;2022-10-23T01:24:44;44.88;;;22.20;;
69789;SDS011;57064;52.046;4.800;2022-10-23T01:29:58;36.75;;;20.75;;
69789;SDS011;57064;52.046;4.800;2022-10-23T01:32:32;43.45;;;20.77;;
69789;SDS011;57064;52.046;4.800;2022-10-23T01:35:17;38.75;;;21.20;;
69789;SDS011;57064;52.046;4.800;2022-10-23T01:37:54;44.13;;;21.30;;
69789;SDS011;57064;52.046;4.800;2022-10-23T01:43:18;44.58;;;21.63;;
69789;SDS011;57064;52.046;4.800;2022-10-23T01:45:52;37.67;;;18.92;;
69789;SDS011;57064;52.046;4.800;2022-10-23T01:48:25;32.33;;;19.00;;
69789;SDS011;57064;52.046;4.800;2022-10-23T01:50:53;42.42;;;20.27;;
69789;SDS011;57064;52.046;4.800;2022-10-23T01:53:22;36.50;;;19.10;;
69789;SDS011;57064;52.046;4.800;2022-10-23T01:55:54;38.33;;;17.55;;
69789;SDS011;57064;52.046;4.800;2022-10-23T01:58:21;41.50;;;19.05;;
69789;SDS011;57064;52.046;4.800;2022-10-23T02:00:49;36.08;;;18.55;;
69789;SDS011;57064;52.046;4.800;2022-10-23T02:03:17;35.30;;;19.20;;
69789;SDS011;57064;52.046;4.800;2022-10-23T02:05:43;40.88;;;19.27;;
69789;SDS011;57064;52.046;4.800;2022-10-23T02:08:10;34.00;;;17.67;;
69789;SDS011;57064;52.046;4.800;2022-10-23T02:13:11;37.70;;;18.35;;
69789;SDS011;57064;52.046;4.800;2022-10-23T02:15:47;41.08;;;19.23;;
69789;SDS011;57064;52.046;4.800;2022-10-23T02:23:32;40.15;;;19.52;;
69789;SDS011;57064;52.046;4.800;2022-10-23T02:28:51;48.97;;;20.63;;
69789;SDS011;57064;52.046;4.800;2022-10-23T02:31:24;42.30;;;18.13;;
69789;SDS011;57064;52.046;4.800;2022-10-23T02:33:50;43.03;;;20.05;;
69789;SDS011;57064;52.046;4.800;2022-10-23T02:36:17;45.60;;;20.58;;
69789;SDS011;57064;52.046;4.800;2022-10-23T02:38:44;37.67;;;19.42;;
69789;SDS011;57064;52.046;4.800;2022-10-23T02:57:56;38.72;;;18.40;;
69789;SDS011;57064;52.046;4.800;2022-10-23T03:00:28;43.78;;;20.10;;
69789;SDS011;57064;52.046;4.800;2022-10-23T03:03:01;42.47;;;20.33;;
69789;SDS011;57064;52.046;4.800;2022-10-23T03:05:35;42.70;;;20.77;;
69789;SDS011;57064;52.046;4.800;2022-10-23T03:08:03;44.08;;;19.10;;
69789;SDS011;57064;52.046;4.800;2022-10-23T03:10:31;41.08;;;19.40;;
69789;SDS011;57064;52.046;4.800;2022-10-23T03:12:57;40.85;;;19.02;;
69789;SDS011;57064;52.046;4.800;2022-10-23T03:15:24;37.67;;;18.15;;
69789;SDS011;57064;52.046;4.800;2022-10-23T03:17:50;42.58;;;19.10;;
69789;SDS011;57064;52.046;4.800;2022-10-23T03:20:16;41.00;;;19.52;;
69789;SDS011;57064;52.046;4.800;2022-10-23T03:22:42;43.25;;;20.60;;
69789;SDS011;57064;52.046;4.800;2022-10-23T03:25:08;40.08;;;19.02;;
69789;SDS011;57064;52.046;4.800;2022-10-23T03:27:34;39.13;;;19.25;;
69789;SDS011;57064;52.046;4.800;2022-10-23T03:30:00;36.53;;;18.90;;
69789;SDS011;57064;52.046;4.800;2022-10-23T03:32:26;42.42;;;19.25;;
69789;SDS011;57064;52.046;4.800;2022-10-23T03:34:52;42.47;;;19.15;;
69789;SDS011;57064;52.046;4.800;2022-10-23T03:37:19;35.88;;;17.60;;
69789;SDS011;57064;52.046;4.800;2022-10-23T03:39:45;36.03;;;19.55;;
69789;SDS011;57064;52.046;4.800;2022-10-23T03:42:11;36.83;;;18.95;;
69789;SDS011;57064;52.046;4.800;2022-10-23T03:44:37;42.33;;;18.42;;
69789;SDS011;57064;52.046;4.800;2022-10-23T03:47:03;40.60;;;19.27;;
69789;SDS011;57064;52.046;4.800;2022-10-23T03:49:29;38.10;;;18.55;;
69789;SDS011;57064;52.046;4.800;2022-10-23T03:51:55;36.42;;;17.95;;
69789;SDS011;57064;52.046;4.800;2022-10-23T03:54:22;41.28;;;19.40;;
69789;SDS011;57064;52.046;4.800;2022-10-23T03:56:49;37.17;;;19.95;;
69789;SDS011;57064;52.046;4.800;2022-10-23T03:59:16;40.90;;;18.40;;
69789;SDS011;57064;52.046;4.800;2022-10-23T04:01:42;40.75;;;19.27;;
69789;SDS011;57064;52.046;4.800;2022-10-23T04:04:09;43.45;;;19.38;;
69789;SDS011;57064;52.046;4.800;2022-10-23T04:06:35;39.28;;;19.52;;
69789;SDS011;57064;52.046;4.800;2022-10-23T04:09:02;39.55;;;19.05;;
69789;SDS011;57064;52.046;4.800;2022-10-23T04:11:28;39.58;;;19.42;;
69789;SDS011;57064;52.046;4.800;2022-10-23T04:13:55;38.33;;;18.30;;
69789;SDS011;57064;52.046;4.800;2022-10-23T04:16:21;39.47;;;19.40;;
69789;SDS011;57064;52.046;4.800;2022-10-23T04:18:48;40.72;;;19.92;;
69789;SDS011;57064;52.046;4.800;2022-10-23T04:21:14;42.15;;;19.52;;
69789;SDS011;57064;52.046;4.800;2022-10-23T04:23:40;34.28;;;18.73;;
69789;SDS011;57064;52.046;4.800;2022-10-23T04:26:06;37.38;;;18.73;;
69789;SDS011;57064;52.046;4.800;2022-10-23T04:28:33;34.88;;;18.40;;
69789;SDS011;57064;52.046;4.800;2022-10-23T04:30:59;44.20;;;20.10;;
69789;SDS011;57064;52.046;4.800;2022-10-23T04:33:25;35.65;;;18.00;;
69789;SDS011;57064;52.046;4.800;2022-10-23T04:35:51;39.53;;;17.58;;
69789;SDS011;57064;52.046;4.800;2022-10-23T04:38:17;36.17;;;17.30;;
69789;SDS011;57064;52.046;4.800;2022-10-23T04:40:43;37.28;;;17.77;;
69789;SDS011;57064;52.046;4.800;2022-10-23T04:43:09;32.03;;;17.73;;
69789;SDS011;57064;52.046;4.800;2022-10-23T04:45:35;32.15;;;17.25;;
69789;SDS011;57064;52.046;4.800;2022-10-23T04:48:02;36.80;;;16.70;;
69789;SDS011;57064;52.046;4.800;2022-10-23T04:50:28;34.22;;;16.08;;
69789;SDS011;57064;52.046;4.800;2022-10-23T04:52:55;27.67;;;15.95;;
69789;SDS011;57064;52.046;4.800;2022-10-23T04:55:21;30.48;;;15.77;;
69789;SDS011;57064;52.046;4.800;2022-10-23T04:57:49;28.73;;;15.25;;
69789;SDS011;57064;52.046;4.800;2022-10-23T05:00:16;35.22;;;15.70;;
69789;SDS011;57064;52.046;4.800;2022-10-23T05:02:43;30.27;;;15.98;;
69789;SDS011;57064;52.046;4.800;2022-10-23T05:05:09;26.83;;;16.05;;
69789;SDS011;57064;52.046;4.800;2022-10-23T05:07:37;29.60;;;15.15;;
69789;SDS011;57064;52.046;4.800;2022-10-23T05:10:04;30.15;;;15.15;;
69789;SDS011;57064;52.046;4.800;2022-10-23T05:12:30;27.10;;;14.65;;
69789;SDS011;57064;52.046;4.800;2022-10-23T05:14:56;28.02;;;15.50;;
69789;SDS011;57064;52.046;4.800;2022-10-23T05:17:24;26.90;;;15.25;;
69789;SDS011;57064;52.046;4.800;2022-10-23T05:19:54;33.35;;;15.68;;
69789;SDS011;57064;52.046;4.800;2022-10-23T05:22:22;31.67;;;15.93;;
69789;SDS011;57064;52.046;4.800;2022-10-23T05:24:51;28.77;;;14.88;;
69789;SDS011;57064;52.046;4.800;2022-10-23T05:27:18;29.15;;;15.02;;
69789;SDS011;57064;52.046;4.800;2022-10-23T05:29:44;30.25;;;14.93;;
69789;SDS011;57064;52.046;4.800;2022-10-23T05:32:10;39.45;;;15.90;;
69789;SDS011;57064;52.046;4.800;2022-10-23T05:34:39;30.98;;;14.93;;
69789;SDS011;57064;52.046;4.800;2022-10-23T05:37:06;29.83;;;15.73;;
69789;SDS011;57064;52.046;4.800;2022-10-23T05:39:35;29.77;;;16.17;;
69789;SDS011;57064;52.046;4.800;2022-10-23T05:42:02;30.00;;;15.18;;
69789;SDS011;57064;52.046;4.800;2022-10-23T05:44:28;27.13;;;14.15;;
69789;SDS011;57064;52.046;4.800;2022-10-23T05:46:54;27.80;;;14.52;;
69789;SDS011;57064;52.046;4.800;2022-10-23T05:49:22;31.80;;;15.32;;
69789;SDS011;57064;52.046;4.800;2022-10-23T05:51:49;29.75;;;14.48;;
69789;SDS011;57064;52.046;4.800;2022-10-23T05:54:15;30.00;;;15.00;;
69789;SDS011;57064;52.046;4.800;2022-10-23T05:56:41;27.27;;;14.25;;
69789;SDS011;57064;52.046;4.800;2022-10-23T05:59:07;28.95;;;12.95;;
69789;SDS011;57064;52.046;4.800;2022-10-23T06:01:34;26.80;;;13.02;;
69789;SDS011;57064;52.046;4.800;2022-10-23T06:04:01;31.58;;;15.05;;
69789;SDS011;57064;52.046;4.800;2022-10-23T06:06:28;28.17;;;13.68;;
69789;SDS011;57064;52.046;4.800;2022-10-23T06:08:54;29.77;;;14.23;;
69789;SDS011;57064;52.046;4.800;2022-10-23T06:11:21;30.38;;;14.18;;
69789;SDS011;57064;52.046;4.800;2022-10-23T06:13:47;34.25;;;15.00;;
69789;SDS011;57064;52.046;4.800;2022-10-23T06:16:14;26.75;;;14.52;;
69789;SDS011;57064;52.046;4.800;2022-10-23T06:18:42;26.35;;;14.10;;
69789;SDS011;57064;52.046;4.800;2022-10-23T06:21:08;26.02;;;13.25;;
69789;SDS011;57064;52.046;4.800;2022-10-23T06:23:35;30.80;;;15.02;;
69789;SDS011;57064;52.046;4.800;2022-10-23T06:26:03;28.48;;;14.00;;
69789;SDS011;57064;52.046;4.800;2022-10-23T06:28:29;31.52;;;14.88;;
69789;SDS011;57064;52.046;4.800;2022-10-23T06:30:55;33.35;;;14.90;;
69789;SDS011;57064;52.046;4.800;2022-10-23T06:33:21;32.70;;;14.30;;
69789;SDS011;57064;52.046;4.800;2022-10-23T06:35:48;29.45;;;14.15;;
69789;SDS011;57064;52.046;4.800;2022-10-23T06:38:14;26.92;;;13.40;;
69789;SDS011;57064;52.046;4.800;2022-10-23T06:40:40;29.40;;;14.05;;
69789;SDS011;57064;52.046;4.800;2022-10-23T06:43:06;27.80;;;13.85;;
69789;SDS011;57064;52.046;4.800;2022-10-23T06:45:32;27.13;;;13.57;;
69789;SDS011;57064;52.046;4.800;2022-10-23T06:47:59;28.88;;;13.95;;
69789;SDS011;57064;52.046;4.800;2022-10-23T06:50:26;28.20;;;13.38;;
69789;SDS011;57064;52.046;4.800;2022-10-23T06:52:55;25.90;;;12.20;;
69789;SDS011;57064;52.046;4.800;2022-10-23T06:55:21;28.55;;;14.15;;
69789;SDS011;57064;52.046;4.800;2022-10-23T06:57:47;30.58;;;13.75;;
69789;SDS011;57064;52.046;4.800;2022-10-23T07:00:13;25.88;;;12.60;;
69789;SDS011;57064;52.046;4.800;2022-10-23T07:02:40;24.98;;;12.48;;
69789;SDS011;57064;52.046;4.800;2022-10-23T07:05:06;29.58;;;13.15;;
69789;SDS011;57064;52.046;4.800;2022-10-23T07:07:32;29.80;;;12.27;;
69789;SDS011;57064;52.046;4.800;2022-10-23T07:09:58;24.75;;;13.18;;
69789;SDS011;57064;52.046;4.800;2022-10-23T07:12:24;29.63;;;13.60;;
69789;SDS011;57064;52.046;4.800;2022-10-23T07:14:51;23.02;;;12.50;;
69789;SDS011;57064;52.046;4.800;2022-10-23T07:17:17;25.65;;;12.15;;
69789;SDS011;57064;52.046;4.800;2022-10-23T07:19:44;21.77;;;12.63;;
69789;SDS011;57064;52.046;4.800;2022-10-23T07:22:11;21.00;;;11.45;;
69789;SDS011;57064;52.046;4.800;2022-10-23T07:24:37;24.85;;;11.48;;
69789;SDS011;57064;52.046;4.800;2022-10-23T07:27:04;26.17;;;12.00;;
69789;SDS011;57064;52.046;4.800;2022-10-23T07:29:31;25.27;;;12.23;;
69789;SDS011;57064;52.046;4.800;2022-10-23T07:31:57;18.05;;;11.10;;
69789;SDS011;57064;52.046;4.800;2022-10-23T07:34:28;19.63;;;11.32;;
69789;SDS011;57064;52.046;4.800;2022-10-23T07:36:55;21.80;;;11.35;;
69789;SDS011;57064;52.046;4.800;2022-10-23T07:39:21;23.88;;;12.68;;
69789;SDS011;57064;52.046;4.800;2022-10-23T07:41:47;22.80;;;11.18;;
69789;SDS011;57064;52.046;4.800;2022-10-23T07:44:14;25.15;;;12.52;;
69789;SDS011;57064;52.046;4.800;2022-10-23T07:46:40;20.55;;;10.63;;
69789;SDS011;57064;52.046;4.800;2022-10-23T07:49:06;20.98;;;11.40;;
69789;SDS011;57064;52.046;4.800;2022-10-23T07:51:34;22.35;;;10.15;;
69789;SDS011;57064;52.046;4.800;2022-10-23T07:53:59;18.00;;;10.02;;
69789;SDS011;57064;52.046;4.800;2022-10-23T07:56:26;17.23;;;10.13;;
69789;SDS011;57064;52.046;4.800;2022-10-23T07:58:55;21.33;;;10.52;;
69789;SDS011;57064;52.046;4.800;2022-10-23T08:04:03;21.77;;;10.07;;
69789;SDS011;57064;52.046;4.800;2022-10-23T08:06:32;16.67;;;8.77;;
69789;SDS011;57064;52.046;4.800;2022-10-23T08:08:59;22.17;;;8.82;;
69789;SDS011;57064;52.046;4.800;2022-10-23T08:11:25;16.60;;;8.60;;
69789;SDS011;57064;52.046;4.800;2022-10-23T08:13:55;18.48;;;9.02;;
69789;SDS011;57064;52.046;4.800;2022-10-23T08:16:22;17.27;;;9.55;;
69789;SDS011;57064;52.046;4.800;2022-10-23T08:18:49;15.20;;;8.88;;
69789;SDS011;57064;52.046;4.800;2022-10-23T08:21:16;13.50;;;8.43;;
69789;SDS011;57064;52.046;4.800;2022-10-23T08:23:43;18.70;;;9.48;;
69789;SDS011;57064;52.046;4.800;2022-10-23T08:26:10;13.95;;;9.00;;
69789;SDS011;57064;52.046;4.800;2022-10-23T08:28:38;16.13;;;8.50;;
69789;SDS011;57064;52.046;4.800;2022-10-23T08:31:10;16.00;;;8.73;;
69789;SDS011;57064;52.046;4.800;2022-10-23T08:33:38;16.65;;;8.65;;
69789;SDS011;57064;52.046;4.800;2022-10-23T08:36:05;14.73;;;8.88;;
69789;SDS011;57064;52.046;4.800;2022-10-23T08:38:50;16.27;;;8.57;;
69789;SDS011;57064;52.046;4.800;2022-10-23T08:41:27;16.17;;;8.88;;
69789;SDS011;57064;52.046;4.800;2022-10-23T08:46:36;15.00;;;8.45;;
69789;SDS011;57064;52.046;4.800;2022-10-23T08:51:53;15.80;;;8.52;;
69789;SDS011;57064;52.046;4.800;2022-10-23T08:54:23;13.30;;;8.55;;
69789;SDS011;57064;52.046;4.800;2022-10-23T08:56:56;15.35;;;9.02;;
69789;SDS011;57064;52.046;4.800;2022-10-23T08:59:47;12.35;;;7.53;;
69789;SDS011;57064;52.046;4.800;2022-10-23T09:05:01;14.88;;;8.32;;
69789;SDS011;57064;52.046;4.800;2022-10-23T09:12:58;13.85;;;7.30;;
69789;SDS011;57064;52.046;4.800;2022-10-23T09:15:46;13.38;;;7.15;;
69789;SDS011;57064;52.046;4.800;2022-10-23T09:18:29;9.65;;;5.80;;
69789;SDS011;57064;52.046;4.800;2022-10-23T09:20:55;15.55;;;7.15;;
69789;SDS011;57064;52.046;4.800;2022-10-23T09:23:22;14.90;;;8.13;;
69789;SDS011;57064;52.046;4.800;2022-10-23T09:25:49;13.43;;;7.03;;
69789;SDS011;57064;52.046;4.800;2022-10-23T09:28:22;12.18;;;7.25;;
69789;SDS011;57064;52.046;4.800;2022-10-23T09:31:04;14.52;;;6.88;;
69789;SDS011;57064;52.046;4.800;2022-10-23T09:33:33;15.27;;;8.25;;
69789;SDS011;57064;52.046;4.800;2022-10-23T09:36:07;9.10;;;6.32;;
69789;SDS011;57064;52.046;4.800;2022-10-23T09:41:18;14.02;;;6.90;;
69789;SDS011;57064;52.046;4.800;2022-10-23T09:44:00;12.65;;;7.10;;
69789;SDS011;57064;52.046;4.800;2022-10-23T09:51:50;11.65;;;6.60;;
69789;SDS011;57064;52.046;4.800;2022-10-23T09:54:17;13.68;;;7.15;;
69789;SDS011;57064;52.046;4.800;2022-10-23T09:56:47;14.23;;;8.02;;
69789;SDS011;57064;52.046;4.800;2022-10-23T10:04:16;12.65;;;6.90;;
69789;SDS011;57064;52.046;4.800;2022-10-23T10:06:43;13.18;;;7.90;;
69789;SDS011;57064;52.046;4.800;2022-10-23T10:09:13;12.93;;;7.55;;
69789;SDS011;57064;52.046;4.800;2022-10-23T10:11:45;12.48;;;7.75;;
69789;SDS011;57064;52.046;4.800;2022-10-23T10:17:24;14.57;;;8.10;;
69789;SDS011;57064;52.046;4.800;2022-10-23T10:30:42;14.00;;;7.32;;
69789;SDS011;57064;52.046;4.800;2022-10-23T10:36:59;11.25;;;6.30;;
69789;SDS011;57064;52.046;4.800;2022-10-23T10:50:15;10.90;;;6.22;;
69789;SDS011;57064;52.046;4.800;2022-10-23T10:52:50;10.52;;;6.30;;
69789;SDS011;57064;52.046;4.800;2022-10-23T10:55:41;12.50;;;6.35;;
69789;SDS011;57064;52.046;4.800;2022-10-23T11:00:42;9.88;;;6.30;;
69789;SDS011;57064;52.046;4.800;2022-10-23T11:03:17;16.42;;;7.88;;
69789;SDS011;57064;52.046;4.800;2022-10-23T11:05:51;16.25;;;8.30;;
69789;SDS011;57064;52.046;4.800;2022-10-23T11:08:21;11.95;;;7.13;;
69789;SDS011;57064;52.046;4.800;2022-10-23T11:11:02;11.88;;;6.32;;
69789;SDS011;57064;52.046;4.800;2022-10-23T11:13:36;9.38;;;6.38;;
69789;SDS011;57064;52.046;4.800;2022-10-23T11:16:18;11.93;;;6.78;;
69789;SDS011;57064;52.046;4.800;2022-10-23T11:24:35;8.85;;;5.63;;
69789;SDS011;57064;52.046;4.800;2022-10-23T11:38:17;8.15;;;4.97;;
69789;SDS011;57064;52.046;4.800;2022-10-23T11:40:50;9.38;;;5.10;;
69789;SDS011;57064;52.046;4.800;2022-10-23T11:43:25;8.27;;;4.47;;
69789;SDS011;57064;52.046;4.800;2022-10-23T11:45:51;7.50;;;4.72;;
69789;SDS011;57064;52.046;4.800;2022-10-23T11:48:22;6.30;;;4.15;;
69789;SDS011;57064;52.046;4.800;2022-10-23T11:51:03;7.68;;;4.40;;
69789;SDS011;57064;52.046;4.800;2022-10-23T11:58:41;9.55;;;4.75;;
69789;SDS011;57064;52.046;4.800;2022-10-23T12:03:46;7.60;;;4.68;;
69789;SDS011;57064;52.046;4.800;2022-10-23T12:06:22;9.50;;;4.45;;
69789;SDS011;57064;52.046;4.800;2022-10-23T12:08:53;8.85;;;4.43;;
69789;SDS011;57064;52.046;4.800;2022-10-23T12:11:24;7.15;;;4.55;;
69789;SDS011;57064;52.046;4.800;2022-10-23T12:13:52;6.43;;;4.40;;
69789;SDS011;57064;52.046;4.800;2022-10-23T12:16:18;9.15;;;4.28;;
69789;SDS011;57064;52.046;4.800;2022-10-23T12:18:45;8.48;;;5.25;;
69789;SDS011;57064;52.046;4.800;2022-10-23T12:21:23;9.40;;;5.20;;
69789;SDS011;57064;52.046;4.800;2022-10-23T12:27:11;9.73;;;4.80;;
69789;SDS011;57064;52.046;4.800;2022-10-23T12:38:31;8.23;;;4.07;;
69789;SDS011;57064;52.046;4.800;2022-10-23T12:44:06;6.93;;;3.75;;
69789;SDS011;57064;52.046;4.800;2022-10-23T12:46:40;9.23;;;4.05;;
69789;SDS011;57064;52.046;4.800;2022-10-23T12:49:14;8.63;;;3.83;;
69789;SDS011;57064;52.046;4.800;2022-10-23T12:51:43;7.40;;;3.47;;
69789;SDS011;57064;52.046;4.800;2022-10-23T12:54:16;8.40;;;3.67;;
69789;SDS011;57064;52.046;4.800;2022-10-23T12:56:44;5.82;;;3.40;;
69789;SDS011;57064;52.046;4.800;2022-10-23T12:59:27;7.50;;;3.38;;
69789;SDS011;57064;52.046;4.800;2022-10-23T13:02:00;8.48;;;3.50;;
69789;SDS011;57064;52.046;4.800;2022-10-23T13:04:27;6.80;;;3.70;;
69789;SDS011;57064;52.046;4.800;2022-10-23T13:06:58;6.75;;;3.67;;
69789;SDS011;57064;52.046;4.800;2022-10-23T13:09:27;7.55;;;3.85;;
69789;SDS011;57064;52.046;4.800;2022-10-23T13:11:56;5.38;;;3.47;;
69789;SDS011;57064;52.046;4.800;2022-10-23T13:14:32;5.68;;;3.65;;
69789;SDS011;57064;52.046;4.800;2022-10-23T13:17:01;8.02;;;3.80;;
69789;SDS011;57064;52.046;4.800;2022-10-23T13:19:28;7.93;;;3.90;;
69789;SDS011;57064;52.046;4.800;2022-10-23T13:21:55;5.95;;;3.58;;
69789;SDS011;57064;52.046;4.800;2022-10-23T13:24:22;6.95;;;3.80;;
69789;SDS011;57064;52.046;4.800;2022-10-23T13:26:50;6.97;;;3.65;;
69789;SDS011;57064;52.046;4.800;2022-10-23T13:31:52;6.82;;;3.80;;
69789;SDS011;57064;52.046;4.800;2022-10-23T13:36:58;10.63;;;3.80;;
69789;SDS011;57064;52.046;4.800;2022-10-23T13:39:43;10.18;;;3.85;;
69789;SDS011;57064;52.046;4.800;2022-10-23T13:42:12;8.10;;;3.78;;
69789;SDS011;57064;52.046;4.800;2022-10-23T13:44:39;10.23;;;4.07;;
69789;SDS011;57064;52.046;4.800;2022-10-23T13:47:09;6.13;;;3.30;;
69789;SDS011;57064;52.046;4.800;2022-10-23T13:49:41;6.57;;;3.53;;
69789;SDS011;57064;52.046;4.800;2022-10-23T13:52:08;11.32;;;4.30;;
69789;SDS011;57064;52.046;4.800;2022-10-23T13:54:37;7.93;;;3.25;;
69789;SDS011;57064;52.046;4.800;2022-10-23T13:57:03;8.02;;;4.20;;
69789;SDS011;57064;52.046;4.800;2022-10-23T13:59:30;8.25;;;4.18;;
69789;SDS011;57064;52.046;4.800;2022-10-23T14:01:56;8.27;;;3.95;;
69789;SDS011;57064;52.046;4.800;2022-10-23T14:04:22;8.98;;;3.90;;
69789;SDS011;57064;52.046;4.800;2022-10-23T14:06:48;6.07;;;3.75;;
69789;SDS011;57064;52.046;4.800;2022-10-23T14:09:18;6.90;;;4.10;;
69789;SDS011;57064;52.046;4.800;2022-10-23T14:11:44;10.45;;;3.90;;
69789;SDS011;57064;52.046;4.800;2022-10-23T14:14:11;8.40;;;3.40;;
69789;SDS011;57064;52.046;4.800;2022-10-23T14:16:37;7.35;;;3.33;;
69789;SDS011;57064;52.046;4.800;2022-10-23T14:19:03;9.52;;;3.20;;
69789;SDS011;57064;52.046;4.800;2022-10-23T14:21:30;7.28;;;3.10;;
69789;SDS011;57064;52.046;4.800;2022-10-23T14:23:59;5.43;;;3.08;;
69789;SDS011;57064;52.046;4.800;2022-10-23T14:26:25;5.70;;;2.92;;
69789;SDS011;57064;52.046;4.800;2022-10-23T14:28:54;6.40;;;2.80;;
69789;SDS011;57064;52.046;4.800;2022-10-23T14:31:21;9.27;;;2.72;;
69789;SDS011;57064;52.046;4.800;2022-10-23T14:33:50;5.75;;;2.63;;
69789;SDS011;57064;52.046;4.800;2022-10-23T14:36:18;11.82;;;2.80;;
69789;SDS011;57064;52.046;4.800;2022-10-23T14:38:44;11.38;;;3.30;;
69789;SDS011;57064;52.046;4.800;2022-10-23T14:41:11;6.25;;;3.00;;
69789;SDS011;57064;52.046;4.800;2022-10-23T14:43:38;9.80;;;2.95;;
69789;SDS011;57064;52.046;4.800;2022-10-23T14:46:08;11.93;;;3.00;;
69789;SDS011;57064;52.046;4.800;2022-10-23T14:48:35;7.75;;;2.60;;
69789;SDS011;57064;52.046;4.800;2022-10-23T14:51:02;5.93;;;3.25;;
69789;SDS011;57064;52.046;4.800;2022-10-23T14:53:31;7.10;;;2.90;;
69789;SDS011;57064;52.046;4.800;2022-10-23T14:56:01;7.25;;;3.08;;
69789;SDS011;57064;52.046;4.800;2022-10-23T14:58:28;5.97;;;2.30;;
69789;SDS011;57064;52.046;4.800;2022-10-23T15:01:00;8.55;;;3.10;;
69789;SDS011;57064;52.046;4.800;2022-10-23T15:03:27;5.07;;;3.10;;
69789;SDS011;57064;52.046;4.800;2022-10-23T15:05:54;5.60;;;3.30;;
69789;SDS011;57064;52.046;4.800;2022-10-23T15:08:20;4.10;;;2.78;;
69789;SDS011;57064;52.046;4.800;2022-10-23T15:10:47;6.88;;;2.90;;
69789;SDS011;57064;52.046;4.800;2022-10-23T15:13:13;4.35;;;2.90;;
69789;SDS011;57064;52.046;4.800;2022-10-23T15:15:40;5.13;;;2.53;;
69789;SDS011;57064;52.046;4.800;2022-10-23T15:18:06;8.23;;;3.78;;
69789;SDS011;57064;52.046;4.800;2022-10-23T15:20:32;5.90;;;2.90;;
69789;SDS011;57064;52.046;4.800;2022-10-23T15:22:58;7.00;;;3.05;;
69789;SDS011;57064;52.046;4.800;2022-10-23T15:25:25;4.75;;;3.00;;
69789;SDS011;57064;52.046;4.800;2022-10-23T15:27:51;9.65;;;3.83;;
69789;SDS011;57064;52.046;4.800;2022-10-23T15:30:17;5.68;;;3.25;;
69789;SDS011;57064;52.046;4.800;2022-10-23T15:32:43;5.15;;;2.75;;
69789;SDS011;57064;52.046;4.800;2022-10-23T15:35:09;9.32;;;3.30;;
69789;SDS011;57064;52.046;4.800;2022-10-23T15:37:35;6.88;;;2.78;;
69789;SDS011;57064;52.046;4.800;2022-10-23T15:40:02;9.80;;;3.30;;
69789;SDS011;57064;52.046;4.800;2022-10-23T15:42:28;6.22;;;3.33;;
69789;SDS011;57064;52.046;4.800;2022-10-23T15:44:54;6.72;;;2.80;;
69789;SDS011;57064;52.046;4.800;2022-10-23T15:47:20;5.45;;;3.10;;
69789;SDS011;57064;52.046;4.800;2022-10-23T15:49:46;6.18;;;3.42;;
69789;SDS011;57064;52.046;4.800;2022-10-23T15:52:12;5.25;;;2.80;;
69789;SDS011;57064;52.046;4.800;2022-10-23T15:54:38;7.25;;;3.70;;
69789;SDS011;57064;52.046;4.800;2022-10-23T15:57:04;13.27;;;4.47;;
69789;SDS011;57064;52.046;4.800;2022-10-23T15:59:30;9.23;;;3.72;;
69789;SDS011;57064;52.046;4.800;2022-10-23T16:01:57;8.05;;;3.53;;
69789;SDS011;57064;52.046;4.800;2022-10-23T16:04:24;7.57;;;3.38;;
69789;SDS011;57064;52.046;4.800;2022-10-23T16:06:52;6.53;;;3.28;;
69789;SDS011;57064;52.046;4.800;2022-10-23T16:09:18;7.85;;;3.38;;
69789;SDS011;57064;52.046;4.800;2022-10-23T16:11:45;8.40;;;3.63;;
69789;SDS011;57064;52.046;4.800;2022-10-23T16:14:12;10.10;;;3.65;;
69789;SDS011;57064;52.046;4.800;2022-10-23T16:16:40;8.82;;;3.35;;
69789;SDS011;57064;52.046;4.800;2022-10-23T16:19:06;7.80;;;3.30;;
69789;SDS011;57064;52.046;4.800;2022-10-23T16:21:34;7.25;;;3.08;;
69789;SDS011;57064;52.046;4.800;2022-10-23T16:24:01;7.10;;;3.55;;
69789;SDS011;57064;52.046;4.800;2022-10-23T16:26:29;5.85;;;3.03;;
69789;SDS011;57064;52.046;4.800;2022-10-23T16:28:56;11.43;;;3.25;;
69789;SDS011;57064;52.046;4.800;2022-10-23T16:31:25;7.55;;;2.92;;
69789;SDS011;57064;52.046;4.800;2022-10-23T16:33:51;4.78;;;3.17;;
69789;SDS011;57064;52.046;4.800;2022-10-23T16:36:18;4.20;;;2.58;;
69789;SDS011;57064;52.046;4.800;2022-10-23T16:38:46;5.18;;;3.08;;
69789;SDS011;57064;52.046;4.800;2022-10-23T16:41:12;7.50;;;2.90;;
69789;SDS011;57064;52.046;4.800;2022-10-23T16:43:38;6.38;;;3.28;;
69789;SDS011;57064;52.046;4.800;2022-10-23T16:46:05;8.25;;;3.00;;
69789;SDS011;57064;52.046;4.800;2022-10-23T16:48:34;9.30;;;3.42;;
69789;SDS011;57064;52.046;4.800;2022-10-23T16:51:03;7.15;;;2.97;;
69789;SDS011;57064;52.046;4.800;2022-10-23T16:53:31;8.23;;;3.42;;
69789;SDS011;57064;52.046;4.800;2022-10-23T16:55:57;5.97;;;3.03;;
69789;SDS011;57064;52.046;4.800;2022-10-23T16:58:24;7.30;;;3.30;;
69789;SDS011;57064;52.046;4.800;2022-10-23T17:00:57;5.72;;;3.08;;
69789;SDS011;57064;52.046;4.800;2022-10-23T17:03:25;5.63;;;2.95;;
69789;SDS011;57064;52.046;4.800;2022-10-23T17:05:52;7.63;;;3.13;;
69789;SDS011;57064;52.046;4.800;2022-10-23T17:08:23;6.60;;;3.22;;